Time;durP1;ratioP1;P1;durP2;ratioP2;P2;SDS_P1;SDS_P2;PMS_P1;PMS_P2;Temp;Humidity;BMP_temperature;BMP_pressure;BME280_temperature;BME280_humidity;BME280_pressure;Samples;Min_cycle;Max_cycle;Signal;HPM_P1;HPM_P2
2022/10/31 00:01:52;;;;;;;17.52;11.95;;;;;;;13.38;100.00;100537.69;2898666;80;21081;-62
2022/10/31 00:06:17;;;;;;;22.15;14.87;;;;;;;13.31;100.00;100539.70;2854291;82;21052;-61
2022/10/31 00:10:18;;;;;;;18.32;11.43;;;;;;;13.33;100.00;100545.75;2870768;81;21085;-61
2022/10/31 00:14:19;;;;;;;19.57;12.53;;;;;;;13.32;100.00;100541.39;2930716;80;21006;-62
2022/10/31 00:18:27;;;;;;;18.10;10.70;;;;;;;13.16;100.00;100542.75;2876981;79;21524;-61
2022/10/31 00:22:28;;;;;;;19.48;12.98;;;;;;;13.13;100.00;100548.38;2849772;80;21054;-62
2022/10/31 00:26:31;;;;;;;22.32;11.48;;;;;;;13.06;100.00;100546.73;2859388;80;21043;-61
2022/10/31 00:30:33;;;;;;;21.40;13.55;;;;;;;12.99;100.00;100553.13;2796622;82;21030;-62
2022/10/31 00:34:34;;;;;;;15.60;10.95;;;;;;;12.98;100.00;100556.78;2861886;81;21046;-62
2022/10/31 00:38:45;;;;;;;19.40;9.28;;;;;;;12.98;100.00;100554.11;2883489;80;21003;-62
2022/10/31 00:42:46;;;;;;;18.52;11.45;;;;;;;12.97;100.00;100556.91;2849274;80;21014;-61
2022/10/31 00:46:47;;;;;;;16.97;9.98;;;;;;;12.92;100.00;100553.80;2860242;81;21073;-61
2022/10/31 00:50:48;;;;;;;23.10;10.72;;;;;;;12.86;100.00;100553.84;2902556;80;21002;-63
2022/10/31 00:54:50;;;;;;;18.45;12.30;;;;;;;12.80;100.00;100559.73;2881970;80;21043;-61
2022/10/31 00:58:51;;;;;;;17.52;10.60;;;;;;;12.86;100.00;100564.52;2872028;80;20999;-61
2022/10/31 01:02:52;;;;;;;14.68;11.08;;;;;;;12.92;100.00;100569.31;2831266;82;21022;-63
2022/10/31 01:07:00;;;;;;;15.58;10.35;;;;;;;12.91;100.00;100560.95;2816244;83;21042;-61
2022/10/31 01:11:06;;;;;;;27.82;12.78;;;;;;;12.75;100.00;100564.59;2815299;82;20974;-61
2022/10/31 01:15:18;;;;;;;14.07;9.60;;;;;;;12.47;100.00;100567.81;2897600;80;21119;-62
2022/10/31 01:19:19;;;;;;;17.27;10.23;;;;;;;12.31;100.00;100567.46;2862313;81;21026;-61
2022/10/31 01:23:21;;;;;;;15.25;10.25;;;;;;;12.30;100.00;100571.94;2839628;80;21457;-61
2022/10/31 01:27:22;;;;;;;16.35;12.03;;;;;;;12.42;100.00;100573.57;2825058;81;21050;-61
2022/10/31 01:31:28;;;;;;;15.95;12.18;;;;;;;12.45;100.00;100569.77;2822405;80;21042;-62
2022/10/31 01:35:35;;;;;;;14.13;10.05;;;;;;;12.47;100.00;100569.66;2897181;80;21014;-62
2022/10/31 01:39:50;;;;;;;13.25;9.25;;;;;;;12.47;100.00;100564.33;2853801;80;21062;-62
2022/10/31 01:44:29;;;;;;;23.10;11.33;;;;;;;12.51;100.00;100567.94;2917033;80;21101;-61
2022/10/31 01:48:31;;;;;;;13.25;9.10;;;;;;;12.52;100.00;100566.96;2890064;80;20999;-61
2022/10/31 01:52:41;;;;;;;11.73;8.85;;;;;;;12.49;100.00;100574.38;2893639;80;21070;-61
2022/10/31 01:56:59;;;;;;;11.75;8.80;;;;;;;12.35;100.00;100567.05;2896154;80;21034;-62
2022/10/31 02:01:03;;;;;;;13.10;9.10;;;;;;;12.32;100.00;100570.48;2896843;81;21011;-64
2022/10/31 02:05:09;;;;;;;15.63;10.82;;;;;;;12.27;100.00;100562.86;2909362;80;20986;-62
2022/10/31 02:09:14;;;;;;;12.30;9.03;;;;;;;12.27;100.00;100560.20;2901381;80;20945;-62
2022/10/31 02:13:16;;;;;;;14.87;10.48;;;;;;;12.21;100.00;100567.39;2862479;81;21026;-62
2022/10/31 02:17:17;;;;;;;13.72;10.18;;;;;;;12.15;100.00;100559.42;2813592;83;21049;-65
2022/10/31 02:21:45;;;;;;;17.77;10.28;;;;;;;12.03;100.00;100557.77;2811858;83;21144;-63
2022/10/31 02:26:38;;;;;;;14.98;9.65;;;;;;;11.93;100.00;100553.66;2924320;80;20963;-62
2022/10/31 02:31:01;;;;;;;14.28;9.60;;;;;;;11.84;100.00;100557.47;2867666;80;21597;-62
2022/10/31 02:35:21;;;;;;;18.50;11.45;;;;;;;11.89;100.00;100558.90;2960309;79;20991;-62
2022/10/31 02:39:30;;;;;;;15.63;9.93;;;;;;;11.97;100.00;100563.95;2913013;80;21034;-63
2022/10/31 02:43:42;;;;;;;16.25;10.45;;;;;;;12.07;100.00;100562.73;2879244;80;20988;-62
2022/10/31 02:47:45;;;;;;;16.02;9.55;;;;;;;12.11;100.00;100569.48;2925134;80;21014;-62
2022/10/31 02:51:47;;;;;;;17.70;9.88;;;;;;;12.08;100.00;100570.22;2936047;79;20964;-62
2022/10/31 02:56:19;;;;;;;13.53;9.53;;;;;;;12.04;100.00;100570.98;2947137;78;20963;-63
2022/10/31 03:00:20;;;;;;;19.82;9.43;;;;;;;11.97;100.00;100575.09;2926425;79;21006;-63
2022/10/31 03:04:36;;;;;;;13.32;10.48;;;;;;;11.89;100.00;100575.75;2894859;80;21018;-62
2022/10/31 03:08:58;;;;;;;17.30;10.38;;;;;;;11.69;100.00;100590.70;2930491;79;20994;-62
2022/10/31 03:13:22;;;;;;;19.65;9.43;;;;;;;11.49;100.00;100593.18;2865044;81;21001;-62
2022/10/31 03:17:41;;;;;;;15.65;9.03;;;;;;;11.32;100.00;100599.02;2916935;79;21003;-62
2022/10/31 03:21:47;;;;;;;15.30;9.78;;;;;;;11.30;100.00;100605.81;2894193;80;21082;-62
2022/10/31 03:25:57;;;;;;;13.62;9.65;;;;;;;11.42;100.00;100603.98;2942894;79;21034;-61
2022/10/31 03:30:10;;;;;;;13.03;9.60;;;;;;;11.53;100.00;100604.45;2928236;78;21053;-62
2022/10/31 03:34:16;;;;;;;13.90;8.55;;;;;;;11.50;100.00;100604.70;2883072;80;20983;-62
2022/10/31 03:38:23;;;;;;;12.03;8.08;;;;;;;11.45;100.00;100603.73;2914581;79;20982;-62
2022/10/31 03:42:38;;;;;;;19.95;10.38;;;;;;;11.35;100.00;100616.94;2853425;80;20950;-61
2022/10/31 03:46:59;;;;;;;11.10;8.47;;;;;;;11.42;100.00;100614.13;2907930;80;21469;-63
2022/10/31 03:51:41;;;;;;;13.38;9.50;;;;;;;11.47;100.00;100611.11;2916576;80;21232;-61
2022/10/31 03:55:59;;;;;;;25.57;9.43;;;;;;;11.57;100.00;100610.70;2897629;80;21092;-62
2022/10/31 04:00:09;;;;;;;13.35;9.78;;;;;;;11.65;100.00;100612.75;2865383;81;21027;-61
2022/10/31 04:04:11;;;;;;;11.70;9.03;;;;;;;11.70;100.00;100613.72;2882499;80;21043;-61
2022/10/31 04:08:17;;;;;;;12.20;8.30;;;;;;;11.70;100.00;100616.38;2893171;80;20988;-62
2022/10/31 04:12:20;;;;;;;13.83;8.85;;;;;;;11.68;100.00;100621.83;2914939;80;21102;-61
2022/10/31 04:16:23;;;;;;;14.00;8.13;;;;;;;11.66;100.00;100618.94;2934788;79;21068;-62
2022/10/31 04:20:41;;;;;;;19.40;8.05;;;;;;;11.62;100.00;100619.67;2918846;80;21093;-64
2022/10/31 04:24:43;;;;;;;16.25;9.05;;;;;;;11.67;100.00;100612.64;2915683;79;21112;-63
2022/10/31 04:28:46;;;;;;;16.25;8.68;;;;;;;11.66;100.00;100614.95;2894285;80;21031;-64
2022/10/31 04:32:47;;;;;;;10.95;8.60;;;;;;;11.66;100.00;100613.11;2887972;81;21010;-64
2022/10/31 04:36:49;;;;;;;11.75;8.08;;;;;;;11.67;100.00;100611.31;2852499;81;21058;-64
2022/10/31 04:40:50;;;;;;;27.75;9.20;;;;;;;11.57;100.00;100615.20;2938751;79;21041;-65
2022/10/31 04:44:51;;;;;;;9.75;6.55;;;;;;;11.53;100.00;100625.75;2879942;80;21041;-64
2022/10/31 04:48:53;;;;;;;13.45;8.43;;;;;;;11.52;100.00;100616.07;2877726;81;21019;-64
2022/10/31 04:53:06;;;;;;;13.05;9.05;;;;;;;11.49;100.00;100621.62;2907488;81;21073;-65
2022/10/31 04:57:08;;;;;;;24.50;8.95;;;;;;;11.45;100.00;100633.03;2872830;80;21002;-65
2022/10/31 05:01:09;;;;;;;12.98;8.75;;;;;;;11.38;100.00;100627.34;2883879;80;20995;-65
2022/10/31 05:05:12;;;;;;;11.30;7.50;;;;;;;11.22;100.00;100621.06;2947005;79;20982;-65
2022/10/31 05:09:13;;;;;;;11.08;7.67;;;;;;;11.14;100.00;100636.31;2911395;79;21029;-65
2022/10/31 05:13:15;;;;;;;12.75;8.08;;;;;;;11.09;100.00;100640.30;2947442;78;20947;-64
2022/10/31 05:17:16;;;;;;;9.95;8.15;;;;;;;11.12;100.00;100634.27;2925454;80;21006;-64
2022/10/31 05:21:17;;;;;;;13.98;8.83;;;;;;;11.19;100.00;100634.59;2826351;82;21054;-66
2022/10/31 05:25:22;;;;;;;17.55;8.15;;;;;;;11.24;100.00;100635.11;2819100;82;21019;-67
2022/10/31 05:29:33;;;;;;;14.70;8.80;;;;;;;11.35;100.00;100640.91;2931044;80;21026;-66
2022/10/31 05:33:32;;;;;;;15.15;9.35;;;;;;;11.49;100.00;100643.80;2889999;79;21023;-66
2022/10/31 05:37:36;;;;;;;17.23;9.00;;;;;;;11.63;100.00;100649.84;2849626;81;21043;-65
2022/10/31 05:41:37;;;;;;;12.10;8.45;;;;;;;11.73;100.00;100642.78;2853425;81;21033;-66
2022/10/31 05:45:38;;;;;;;21.65;10.72;;;;;;;11.87;100.00;100640.31;2877338;81;21012;-65
2022/10/31 05:49:40;;;;;;;14.98;9.05;;;;;;;11.99;100.00;100647.81;2890446;81;20995;-65
2022/10/31 05:53:41;;;;;;;15.50;9.23;;;;;;;12.06;100.00;100656.16;2883766;80;21050;-65
2022/10/31 05:57:42;;;;;;;12.73;8.50;;;;;;;12.14;100.00;100651.89;2885570;81;20978;-65
2022/10/31 06:01:43;;;;;;;17.82;9.23;;;;;;;12.18;100.00;100659.16;2908304;80;21003;-65
2022/10/31 06:05:44;;;;;;;14.40;10.70;;;;;;;12.24;100.00;100656.48;2861779;80;20990;-65
2022/10/31 06:09:45;;;;;;;14.98;8.63;;;;;;;12.34;100.00;100660.05;2889754;81;21516;-65
2022/10/31 06:13:46;;;;;;;22.48;10.45;;;;;;;12.43;100.00;100659.30;2873991;81;21014;-66
2022/10/31 06:22:04;;;;;;;14.30;8.45;;;;;;;12.65;100.00;100662.82;2965261;76;21056;-64
2022/10/31 06:30:40;;;;;;;17.00;9.60;;;;;;;12.80;100.00;100669.17;2900364;79;21054;-94
2022/10/31 06:34:42;;;;;;;12.00;9.48;;;;;;;12.77;100.00;100675.61;2909772;78;20991;-95
2022/10/31 06:38:44;;;;;;;20.10;10.13;;;;;;;12.85;100.00;100681.63;2909491;80;21005;-95
2022/10/31 06:42:46;;;;;;;25.95;10.50;;;;;;;13.07;100.00;100686.46;2905869;79;21014;-96
2022/10/31 06:46:47;;;;;;;14.13;9.48;;;;;;;13.25;100.00;100686.20;2913900;80;20991;-93
2022/10/31 06:50:49;;;;;;;18.40;11.28;;;;;;;13.39;100.00;100692.18;2919206;79;21020;-93
2022/10/31 06:54:51;;;;;;;20.45;10.35;;;;;;;13.50;100.00;100684.08;2860498;80;21363;-95
2022/10/31 06:58:52;;;;;;;13.03;8.20;;;;;;;13.64;100.00;100695.39;2903362;79;20976;-93
2022/10/31 07:03:03;;;;;;;13.88;8.78;;;;;;;13.80;100.00;100696.20;2917971;79;20964;-96
2022/10/31 07:07:05;;;;;;;14.30;9.50;;;;;;;13.89;100.00;100701.22;3008823;75;21037;-95
2022/10/31 07:11:06;;;;;;;19.30;9.95;;;;;;;13.95;100.00;100701.99;3022803;77;21109;-96
2022/10/31 07:15:09;;;;;;;20.52;11.22;;;;;;;14.04;100.00;100697.17;3036046;76;21066;-95
2022/10/31 07:19:10;;;;;;;15.40;7.70;;;;;;;14.14;100.00;100694.50;3023871;76;21081;-95
2022/10/31 07:23:12;;;;;;;11.08;8.20;;;;;;;14.16;100.00;100710.43;2915727;78;21051;-95
2022/10/31 07:27:17;;;;;;;12.95;8.83;;;;;;;14.26;100.00;100706.78;2851400;81;20991;-93
2022/10/31 07:31:19;;;;;;;10.87;7.17;;;;;;;14.43;100.00;100717.75;2888779;80;20976;-94
2022/10/31 07:35:25;;;;;;;14.68;7.30;;;;;;;14.68;100.00;100712.32;2914486;80;20959;-91
2022/10/31 07:39:28;;;;;;;10.85;6.53;;;;;;;14.94;100.00;100718.95;2971126;77;20975;-94
2022/10/31 07:43:30;;;;;;;11.10;6.47;;;;;;;15.14;100.00;100719.77;2811942;81;21012;-93
2022/10/31 07:47:41;;;;;;;13.93;6.30;;;;;;;15.38;100.00;100722.44;2840673;80;21006;-91
2022/10/31 07:51:43;;;;;;;14.13;7.20;;;;;;;15.63;100.00;100727.63;2917356;78;20972;-91
2022/10/31 08:00:23;;;;;;;9.93;6.05;;;;;;;16.10;100.00;100725.84;2891459;78;69070;-90
2022/10/31 08:04:25;;;;;;;12.73;6.25;;;;;;;16.34;100.00;100723.91;2933248;78;21094;-90
2022/10/31 08:08:28;;;;;;;13.85;5.78;;;;;;;16.52;100.00;100724.41;2994213;76;21038;-93
2022/10/31 08:12:32;;;;;;;10.28;6.25;;;;;;;16.66;100.00;100731.08;2971049;77;21012;-90
2022/10/31 08:16:33;;;;;;;10.82;6.12;;;;;;;16.81;100.00;100728.67;2945584;78;21112;-90
2022/10/31 08:20:35;;;;;;;15.25;7.45;;;;;;;16.95;99.00;100726.77;2797862;80;21043;-90
2022/10/31 08:33:53;;;;;;;15.10;8.60;;;;;;;17.20;97.15;100729.64;2826180;82;21083;-64
2022/10/31 08:37:56;;;;;;;10.60;6.70;;;;;;;17.25;98.79;100729.17;2857791;78;21000;-63
2022/10/31 08:41:57;;;;;;;17.05;8.95;;;;;;;17.38;99.32;100734.11;2875344;80;20997;-64
2022/10/31 08:45:58;;;;;;;18.55;8.78;;;;;;;17.55;98.48;100735.03;2840933;82;20984;-63
2022/10/31 08:49:59;;;;;;;10.23;6.97;;;;;;;17.70;99.03;100728.56;2890153;81;20991;-63
2022/10/31 08:54:01;;;;;;;12.33;8.00;;;;;;;17.76;98.01;100730.59;2857591;81;20974;-63
2022/10/31 08:58:13;;;;;;;11.22;8.23;;;;;;;17.84;97.56;100724.41;2841972;81;21571;-63
2022/10/31 09:02:15;;;;;;;8.20;6.15;;;;;;;18.02;96.06;100729.69;2849583;81;21047;-63
2022/10/31 09:06:16;;;;;;;14.40;7.25;;;;;;;18.19;93.85;100731.08;2722716;84;21080;-62
2022/10/31 09:10:17;;;;;;;12.00;7.25;;;;;;;18.34;95.88;100729.92;2827298;80;21035;-63
2022/10/31 09:14:19;;;;;;;11.53;5.78;;;;;;;18.46;96.16;100723.70;2848952;81;21083;-64
2022/10/31 09:18:22;;;;;;;12.10;5.37;;;;;;;18.51;91.03;100729.45;2878193;81;21015;-62
2022/10/31 09:22:23;;;;;;;9.35;6.30;;;;;;;18.62;90.36;100726.94;2890762;80;20987;-62
2022/10/31 09:26:24;;;;;;;10.58;6.87;;;;;;;18.62;89.04;100726.41;2895247;79;20997;-63
2022/10/31 09:30:32;;;;;;;11.90;6.40;;;;;;;18.68;91.55;100728.45;2865370;80;21100;-63
2022/10/31 09:34:33;;;;;;;8.63;4.65;;;;;;;18.68;88.01;100728.45;2856898;80;21067;-62
2022/10/31 09:38:34;;;;;;;7.72;4.80;;;;;;;18.76;87.95;100730.80;2824413;78;21114;-62
2022/10/31 09:42:59;;;;;;;10.82;5.50;;;;;;;18.88;88.89;100721.37;2884350;81;21007;-62
2022/10/31 09:47:12;;;;;;;9.38;5.30;;;;;;;19.03;91.39;100720.20;2828545;83;21135;-62
2022/10/31 09:51:24;;;;;;;11.18;4.90;;;;;;;19.09;89.42;100725.42;2838739;82;21003;-63
2022/10/31 09:55:48;;;;;;;12.50;6.62;;;;;;;19.10;84.33;100717.66;2866677;81;21031;-62
2022/10/31 09:59:50;;;;;;;13.53;6.10;;;;;;;19.24;85.63;100718.28;2845034;82;21114;-63
2022/10/31 10:03:56;;;;;;;8.18;5.10;;;;;;;19.37;88.00;100723.66;2836435;82;21157;-63
2022/10/31 10:08:12;;;;;;;12.80;7.37;;;;;;;19.50;86.89;100725.30;2846684;79;21094;-62
2022/10/31 10:12:21;;;;;;;6.85;5.42;;;;;;;19.58;83.11;100727.14;2875765;80;21109;-62
2022/10/31 10:16:46;;;;;;;12.68;6.50;;;;;;;19.74;84.90;100730.27;2894213;80;21074;-64
2022/10/31 10:48:20;;;;;;;12.40;6.15;;;;;;;20.69;84.34;100727.48;2862424;79;21094;-93
2022/10/31 10:52:34;;;;;;;8.10;5.62;;;;;;;20.60;80.86;100728.06;2936805;78;21213;-93
2022/10/31 10:56:56;;;;;;;21.27;7.40;;;;;;;20.59;82.90;100731.79;2988595;77;21527;-94
2022/10/31 11:00:59;;;;;;;13.75;5.95;;;;;;;20.65;82.29;100720.27;2928120;78;21024;-91
2022/10/31 11:05:02;;;;;;;8.35;5.80;;;;;;;20.65;84.00;100716.22;2980672;78;21047;-92
2022/10/31 11:09:10;;;;;;;8.53;5.10;;;;;;;20.69;84.13;100717.53;2990526;77;21161;-94
2022/10/31 11:13:21;;;;;;;11.97;6.65;;;;;;;20.68;82.94;100712.30;2966231;77;20948;-91
2022/10/31 11:17:33;;;;;;;10.10;6.08;;;;;;;20.76;85.20;100714.09;2960001;78;21450;-92
2022/10/31 11:21:35;;;;;;;10.68;6.85;;;;;;;20.75;81.20;100720.52;3026536;76;21055;-93
2022/10/31 11:25:37;;;;;;;10.65;5.87;;;;;;;20.78;82.13;100714.74;2982226;77;21090;-92
2022/10/31 11:29:39;;;;;;;12.20;6.83;;;;;;;20.73;83.04;100715.28;2965505;77;21012;-92
2022/10/31 11:33:52;;;;;;;15.50;8.10;;;;;;;20.77;82.87;100710.36;2932199;77;21026;-94
2022/10/31 11:37:58;;;;;;;11.22;6.65;;;;;;;20.86;85.01;100707.95;2999556;75;21379;-92
2022/10/31 11:42:03;;;;;;;11.35;6.17;;;;;;;20.83;83.16;100715.91;2989909;75;20965;-92
2022/10/31 11:46:15;;;;;;;14.00;7.37;;;;;;;20.85;82.05;100704.07;2996218;76;20939;-92
2022/10/31 11:50:30;;;;;;;9.68;7.10;;;;;;;20.88;84.42;100704.55;2966249;77;20955;-93
2022/10/31 11:55:01;;;;;;;15.80;7.70;;;;;;;20.90;86.47;100708.41;2947797;77;21038;-93
2022/10/31 11:59:21;;;;;;;14.15;7.60;;;;;;;20.84;84.46;100704.60;2889754;80;20979;-92
2022/10/31 12:03:31;;;;;;;15.85;7.97;;;;;;;20.82;83.82;100704.77;2889833;79;21590;-91
2022/10/31 12:07:33;;;;;;;10.03;6.97;;;;;;;20.91;85.94;100701.48;2970990;77;21024;-92
2022/10/31 12:11:48;;;;;;;12.68;8.10;;;;;;;20.88;83.99;100685.63;2918526;77;21487;-93
2022/10/31 12:16:10;;;;;;;12.30;7.60;;;;;;;20.87;83.84;100685.30;2907792;78;21039;-92
2022/10/31 12:20:14;;;;;;;15.63;8.15;;;;;;;20.92;85.16;100685.58;2924060;78;21027;-94
2022/10/31 12:24:24;;;;;;;11.70;7.05;;;;;;;20.89;86.28;100682.40;2922606;78;21023;-92
2022/10/31 12:28:43;;;;;;;13.22;8.95;;;;;;;20.91;86.43;100677.14;2926427;78;20964;-92
2022/10/31 12:33:18;;;;;;;19.02;8.28;;;;;;;20.92;87.27;100681.53;2942150;78;21046;-91
2022/10/31 12:37:44;;;;;;;15.95;9.45;;;;;;;21.02;86.86;100670.44;2901167;79;20969;-93
2022/10/31 12:42:07;;;;;;;17.00;7.92;;;;;;;21.00;84.43;100665.73;2907949;80;21009;-93
2022/10/31 12:46:33;;;;;;;17.37;8.90;;;;;;;20.94;86.85;100657.02;2917335;78;21028;-93
2022/10/31 12:50:57;;;;;;;17.70;7.90;;;;;;;20.99;86.56;100658.65;2926863;79;20996;-92
2022/10/31 12:55:55;;;;;;;34.48;10.80;;;;;;;21.03;88.35;100659.09;2926884;79;20983;-89
2022/10/31 13:00:15;;;;;;;15.72;8.63;;;;;;;21.02;86.52;100650.16;2810564;80;21039;-94
2022/10/31 13:04:45;;;;;;;12.07;7.45;;;;;;;20.95;86.00;100643.30;2844038;81;21074;-95
2022/10/31 13:08:58;;;;;;;12.80;8.60;;;;;;;20.84;87.38;100642.42;2743975;83;21633;-90
2022/10/31 13:13:07;;;;;;;15.63;8.75;;;;;;;20.76;87.61;100636.55;2828849;81;21080;-89
2022/10/31 13:17:26;;;;;;;12.30;7.17;;;;;;;20.83;87.30;100640.22;2816702;82;21035;-92
2022/10/31 13:21:39;;;;;;;9.55;6.83;;;;;;;20.90;91.18;100636.77;2830017;83;21019;-93
2022/10/31 13:25:46;;;;;;;11.57;7.22;;;;;;;20.98;87.14;100628.05;2650704;87;21006;-93
2022/10/31 13:30:20;;;;;;;19.87;7.72;;;;;;;21.09;86.64;100622.69;2676527;86;21018;-94
2022/10/31 13:34:55;;;;;;;7.08;5.72;;;;;;;21.15;85.40;100623.81;2728743;85;21596;-95
2022/10/31 13:39:27;;;;;;;18.65;8.78;;;;;;;21.22;83.54;100622.05;2712333;86;21055;-94
2022/10/31 13:43:46;;;;;;;30.15;12.25;;;;;;;21.28;86.09;100625.02;2694382;85;21077;-93
2022/10/31 13:48:03;;;;;;;14.75;7.42;;;;;;;21.30;87.28;100618.91;2673293;86;21125;-91
2022/10/31 13:52:16;;;;;;;19.87;10.25;;;;;;;21.25;87.63;100618.11;2692013;86;21107;-94
2022/10/31 13:56:29;;;;;;;15.28;8.83;;;;;;;21.19;88.22;100614.28;2700842;84;21102;-92
2022/10/31 14:00:34;;;;;;;9.75;7.80;;;;;;;21.10;88.26;100612.19;2708527;82;21131;-94
2022/10/31 14:04:54;;;;;;;16.73;7.95;;;;;;;21.11;88.89;100608.98;2809829;83;21026;-95
2022/10/31 14:08:56;;;;;;;16.10;8.10;;;;;;;21.22;89.39;100612.58;2802488;82;21629;-91
2022/10/31 14:17:24;;;;;;;12.35;7.10;;;;;;;21.35;88.19;100604.29;2768585;80;21082;-61
2022/10/31 14:21:30;;;;;;;13.32;6.92;;;;;;;21.35;88.31;100609.20;2931182;76;72902;-91
2022/10/31 14:25:35;;;;;;;13.75;7.75;;;;;;;21.33;87.72;100609.91;2947032;78;21075;-93
2022/10/31 14:34:35;;;;;;;10.98;8.33;;;;;;;21.35;87.33;100605.64;2954174;78;21047;-58
2022/10/31 14:38:58;;;;;;;13.43;7.92;;;;;;;21.34;87.21;100603.97;2973756;79;21095;-57
2022/10/31 14:43:55;;;;;;;11.75;7.37;;;;;;;21.33;86.89;100609.05;2972936;78;20986;-59
2022/10/31 14:48:07;;;;;;;15.30;9.90;;;;;;;21.08;87.17;100601.25;2960683;78;21025;-58
2022/10/31 14:52:11;;;;;;;13.10;8.13;;;;;;;21.00;87.58;100595.92;2962377;79;20967;-59
2022/10/31 14:56:27;;;;;;;16.87;7.65;;;;;;;20.95;86.89;100597.86;2961052;78;20996;-59
2022/10/31 15:00:57;;;;;;;12.75;8.60;;;;;;;20.85;86.57;100588.67;2938592;78;20967;-58
2022/10/31 15:04:58;;;;;;;18.00;7.60;;;;;;;20.68;86.79;100590.67;2971694;78;21488;-60
2022/10/31 15:09:00;;;;;;;23.70;9.23;;;;;;;20.54;86.80;100588.28;2975028;78;20964;-60
2022/10/31 15:13:24;;;;;;;16.35;9.68;;;;;;;20.39;86.56;100597.20;2955420;79;21005;-60
2022/10/31 15:17:29;;;;;;;27.37;13.62;;;;;;;20.21;86.96;100589.44;2957245;78;21103;-61
2022/10/31 15:21:31;;;;;;;29.40;12.25;;;;;;;20.02;87.25;100598.86;2956774;79;21010;-63
2022/10/31 15:25:38;;;;;;;18.52;13.62;;;;;;;19.81;87.58;100592.23;2988418;78;21002;-59
2022/10/31 15:29:56;;;;;;;21.12;11.65;;;;;;;19.60;88.16;100599.63;2931014;80;21550;-59
2022/10/31 15:34:15;;;;;;;22.85;10.50;;;;;;;19.39;88.51;100605.64;2974185;79;20961;-59
2022/10/31 15:38:16;;;;;;;19.10;9.78;;;;;;;19.23;87.89;100601.99;2953110;78;20983;-59
2022/10/31 15:42:31;;;;;;;17.60;10.85;;;;;;;19.04;88.49;100595.17;2937188;79;21026;-58
2022/10/31 15:46:33;;;;;;;78.27;39.93;;;;;;;18.86;89.14;100595.34;2923902;79;20965;-58
2022/10/31 15:50:52;;;;;;;22.37;14.10;;;;;;;18.68;89.09;100595.09;2972587;79;21010;-59
2022/10/31 15:55:16;;;;;;;28.15;13.55;;;;;;;18.41;90.54;100599.82;2910513;81;21031;-58
2022/10/31 15:59:24;;;;;;;29.55;20.30;;;;;;;18.16;91.99;100603.55;2788754;83;21105;-58
2022/10/31 16:03:32;;;;;;;30.75;21.62;;;;;;;17.95;92.88;100603.50;2910394;80;20964;-58
2022/10/31 16:07:33;;;;;;;33.73;19.90;;;;;;;17.85;93.97;100600.45;2885571;80;20978;-58
2022/10/31 16:11:50;;;;;;;30.23;23.30;;;;;;;17.76;94.95;100602.80;2915233;81;20984;-59
2022/10/31 16:16:03;;;;;;;44.55;28.35;;;;;;;17.71;95.03;100601.12;2908684;80;20999;-58
2022/10/31 16:20:26;;;;;;;115.92;78.45;;;;;;;17.56;96.02;100607.13;2973810;78;20983;-60
2022/10/31 16:24:34;;;;;;;114.85;82.02;;;;;;;17.47;96.95;100605.41;2932679;79;20976;-58
2022/10/31 16:28:45;;;;;;;75.42;49.05;;;;;;;17.44;96.81;100604.39;2953134;79;20959;-59
2022/10/31 16:32:59;;;;;;;51.70;36.33;;;;;;;17.36;97.08;100601.17;2938056;79;21051;-58
2022/10/31 16:37:02;;;;;;;52.62;31.07;;;;;;;17.22;95.95;100604.50;2918829;78;21039;-57
2022/10/31 16:41:10;;;;;;;72.72;41.33;;;;;;;17.08;95.50;100605.92;2911697;79;20984;-56
2022/10/31 16:45:19;;;;;;;50.12;29.05;;;;;;;16.94;96.54;100604.17;2883252;79;21028;-59
2022/10/31 16:49:20;;;;;;;44.15;28.75;;;;;;;16.80;96.63;100604.75;2933039;78;21041;-58
2022/10/31 16:53:23;;;;;;;61.23;33.18;;;;;;;16.61;95.04;100605.83;2965587;78;21001;-57
2022/10/31 16:57:30;;;;;;;75.75;41.73;;;;;;;16.44;97.14;100599.48;2960981;78;21045;-58
2022/10/31 17:01:34;;;;;;;85.20;47.73;;;;;;;16.34;98.25;100604.94;2947249;78;37789;-57
2022/10/31 17:05:37;;;;;;;64.95;39.88;;;;;;;16.26;98.25;100609.74;2968836;78;21028;-57
2022/10/31 17:09:50;;;;;;;92.80;60.73;;;;;;;16.15;99.27;100601.95;2946663;78;21001;-59
2022/10/31 17:13:54;;;;;;;79.72;57.23;;;;;;;16.03;99.52;100602.69;2972347;78;21163;-57
2022/10/31 17:18:00;;;;;;;64.75;45.52;;;;;;;15.89;100.00;100607.59;2974102;78;20970;-60
2022/10/31 17:22:02;;;;;;;60.03;38.38;;;;;;;15.83;100.00;100609.00;2962965;79;20981;-58
2022/10/31 17:26:05;;;;;;;56.50;35.13;;;;;;;15.88;100.00;100607.69;2973930;78;21094;-56
2022/10/31 17:30:09;;;;;;;48.05;31.42;;;;;;;15.73;100.00;100601.54;2989225;78;21018;-57
2022/10/31 17:34:10;;;;;;;67.62;45.43;;;;;;;15.59;100.00;100598.85;2911617;79;21144;-59
2022/10/31 17:38:13;;;;;;;55.60;30.95;;;;;;;15.44;100.00;100607.91;2884381;80;20983;-58
2022/10/31 17:42:18;;;;;;;44.10;31.25;;;;;;;15.37;100.00;100606.84;2835807;81;21006;-57
2022/10/31 17:46:21;;;;;;;46.48;32.35;;;;;;;15.34;100.00;100609.30;2897609;80;21000;-58
2022/10/31 17:50:32;;;;;;;41.20;26.75;;;;;;;15.35;100.00;100604.80;2855649;80;20998;-57
2022/10/31 17:54:38;;;;;;;36.17;23.42;;;;;;;15.46;100.00;100601.91;2930025;79;21035;-56
2022/10/31 17:58:46;;;;;;;43.98;28.85;;;;;;;15.42;100.00;100604.55;2939854;79;20995;-57
2022/10/31 18:02:47;;;;;;;41.37;27.35;;;;;;;15.14;100.00;100605.89;2800204;81;21038;-57
2022/10/31 18:06:49;;;;;;;38.00;25.27;;;;;;;14.98;100.00;100600.66;2834752;82;21122;-56
2022/10/31 18:10:58;;;;;;;33.55;24.57;;;;;;;14.82;100.00;100605.28;2841060;82;21083;-56
2022/10/31 18:15:05;;;;;;;34.38;28.90;;;;;;;14.72;100.00;100605.82;2848418;82;21051;-57
2022/10/31 18:19:07;;;;;;;38.65;25.08;;;;;;;14.68;100.00;100594.52;2852216;81;21010;-57
2022/10/31 18:23:09;;;;;;;42.70;25.48;;;;;;;14.52;100.00;100600.48;2887376;80;21092;-59
2022/10/31 18:27:10;;;;;;;40.23;23.87;;;;;;;14.42;100.00;100592.47;2883456;80;20985;-60
2022/10/31 18:31:11;;;;;;;42.93;27.15;;;;;;;14.41;100.00;100594.80;2901930;78;21031;-58
2022/10/31 18:35:13;;;;;;;45.90;34.60;;;;;;;14.54;100.00;100593.15;2853375;80;21007;-58
2022/10/31 18:39:15;;;;;;;45.08;34.03;;;;;;;14.67;100.00;100592.83;2832848;80;20990;-59
2022/10/31 18:43:16;;;;;;;54.80;33.70;;;;;;;14.76;100.00;100593.82;2874446;80;21024;-59
2022/10/31 18:47:18;;;;;;;43.80;31.60;;;;;;;14.84;100.00;100601.12;2839363;81;21016;-58
2022/10/31 18:51:19;;;;;;;37.17;25.32;;;;;;;14.90;100.00;100601.05;2885764;81;21057;-58
2022/10/31 18:55:25;;;;;;;34.30;24.25;;;;;;;14.95;100.00;100595.61;2891247;81;21027;-57
2022/10/31 18:59:26;;;;;;;40.50;27.07;;;;;;;14.97;100.00;100588.74;2895724;77;21170;-59
2022/10/31 19:03:27;;;;;;;45.60;27.48;;;;;;;14.92;100.00;100587.84;2875610;81;21083;-59
2022/10/31 19:07:29;;;;;;;46.98;31.68;;;;;;;14.89;100.00;100596.17;2929625;79;20987;-57
2022/10/31 19:11:32;;;;;;;46.28;31.25;;;;;;;14.92;100.00;100594.53;2957001;78;20931;-57
2022/10/31 19:15:35;;;;;;;38.80;30.23;;;;;;;14.91;100.00;100590.17;2931771;78;20980;-58
2022/10/31 19:19:38;;;;;;;37.45;26.68;;;;;;;14.80;100.00;100572.96;2965139;79;21004;-58
2022/10/31 19:23:40;;;;;;;44.48;28.57;;;;;;;14.51;100.00;100564.48;2992658;78;20966;-57
2022/10/31 19:27:41;;;;;;;42.00;27.98;;;;;;;14.31;100.00;100572.55;2955826;78;20975;-60
2022/10/31 19:31:43;;;;;;;48.20;33.42;;;;;;;14.36;100.00;100562.76;2966647;78;20956;-57
2022/10/31 19:35:45;;;;;;;42.00;29.30;;;;;;;14.26;100.00;100558.76;2917287;79;21059;-58
2022/10/31 19:39:46;;;;;;;50.58;34.83;;;;;;;14.10;100.00;100546.80;2968422;78;21050;-56
2022/10/31 19:43:48;;;;;;;45.00;30.43;;;;;;;13.98;100.00;100547.96;2999125;78;21011;-57
2022/10/31 19:47:49;;;;;;;44.77;30.30;;;;;;;13.96;100.00;100542.74;2971809;78;21018;-60